Eunola, Alabama
Current Conditions -  °F | °C
As of 10:35 AM on Tuesday 21 Oct 2014 (Local Time) from KEDN Reporting Station
Clear Clear  
Wind Chill: 70°   Ceiling: Unl
Heat Index: 70°   Visibility: 10mi
Dew Point: 52°   Wind: 6mph
Humidity: 53%   Direction: 10°N
Pressure: 30.04"   Gusts: NA
Location:  31.0669°N, 85.9172°W
Report Text: KEDN 211535Z AUTO 01005KT 10SM CLR 21/11 A3004 RMK AO2
Loading
Personal Weather Stations






























Interactive Weather Map
Tropical Storm Tracking
New forecast layout! Learn more

10-Day Weather Forecast

Advertisements
Track Severe Weather on mobile